createdAt,value
2018-04-23T00:01:04.957Z,98255.75
2018-04-23T00:03:16.133Z,98253.08
2018-04-23T00:05:27.239Z,98254.39
2018-04-23T00:07:38.329Z,98264.89
2018-04-23T00:09:49.429Z,98258.09
2018-04-23T00:12:00.554Z,98258.67
2018-04-23T00:14:11.709Z,98254.59
2018-04-23T00:16:22.786Z,98257.23
2018-04-23T00:18:33.941Z,98252.04
2018-04-23T00:20:45.051Z,98252.20
2018-04-23T00:22:56.139Z,98248.62
2018-04-23T00:25:07.195Z,98251.30
2018-04-23T00:27:18.326Z,98252.38
2018-04-23T00:29:29.486Z,98251.67
2018-04-23T00:31:40.548Z,98247.61
2018-04-23T00:33:51.698Z,98248.22
2018-04-23T00:36:02.773Z,98251.02
2018-04-23T00:38:13.862Z,98241.80
2018-04-23T00:40:24.929Z,98250.65
2018-04-23T00:42:36.049Z,98239.37
2018-04-23T00:44:47.120Z,98244.77
2018-04-23T00:46:58.202Z,98248.38
2018-04-23T00:49:09.326Z,98252.33
2018-04-23T00:51:20.436Z,98253.91
2018-04-23T00:53:37.769Z,98252.88
2018-04-23T00:55:48.825Z,98251.10
2018-04-23T00:58:00.002Z,98257.52
2018-04-23T01:00:11.089Z,98251.50
2018-04-23T01:02:22.182Z,98247.17
2018-04-23T01:04:33.279Z,98253.49
2018-04-23T01:06:44.377Z,98249.50
2018-04-23T01:08:55.481Z,98242.58
2018-04-23T01:11:06.678Z,98248.06
2018-04-23T01:13:17.797Z,98258.91
2018-04-23T01:15:28.893Z,98260.08
2018-04-23T01:17:40.133Z,98259.34
2018-04-23T01:19:51.225Z,98259.73
2018-04-23T01:22:02.287Z,98259.60
2018-04-23T01:24:13.356Z,98260.11
2018-04-23T01:26:24.455Z,98260.74
2018-04-23T01:28:35.558Z,98261.38
2018-04-23T01:30:46.674Z,98259.14
2018-04-23T01:32:57.746Z,98261.63
2018-04-23T01:35:08.790Z,98261.83
2018-04-23T01:37:19.866Z,98262.93
2018-04-23T01:39:30.919Z,98265.02
2018-04-23T01:41:42.163Z,98270.56
2018-04-23T01:43:53.204Z,98268.95
2018-04-23T01:46:04.325Z,98267.59
2018-04-23T01:48:15.409Z,98267.28
2018-04-23T01:50:26.485Z,98269.73
2018-04-23T01:52:37.554Z,98265.84
2018-04-23T01:54:48.629Z,98276.03
2018-04-23T01:56:59.678Z,98273.33
2018-04-23T01:59:10.735Z,98276.49
2018-04-23T02:01:21.851Z,98280.92
2018-04-23T02:03:32.906Z,98278.86
2018-04-23T02:05:44.088Z,98283.16
2018-04-23T02:07:55.136Z,98280.92
2018-04-23T02:10:06.326Z,98278.91
2018-04-23T02:12:17.427Z,98276.42
2018-04-23T02:14:28.516Z,98279.25
2018-04-23T02:16:39.582Z,98280.83
2018-04-23T02:18:50.638Z,98283.88
2018-04-23T02:21:01.807Z,98283.95
2018-04-23T02:23:12.997Z,98284.36
2018-04-23T02:25:24.127Z,98282.41
2018-04-23T02:27:35.210Z,98284.94
2018-04-23T02:29:46.314Z,98290.86
2018-04-23T02:31:57.397Z,98286.85
2018-04-23T02:34:08.465Z,98288.31
2018-04-23T02:36:19.524Z,98285.20
2018-04-23T02:38:30.722Z,98288.39
2018-04-23T02:40:41.858Z,98284.91
2018-04-23T02:42:52.974Z,98283.58
2018-04-23T02:45:04.029Z,98289.25
2018-04-23T02:47:15.061Z,98279.42
2018-04-23T02:49:26.205Z,98270.05
2018-04-23T02:51:37.292Z,98280.88
2018-04-23T02:53:48.474Z,98276.53
2018-04-23T02:55:59.550Z,98278.00
2018-04-23T02:58:10.682Z,98280.47
2018-04-23T03:00:21.758Z,98274.31
2018-04-23T03:02:32.896Z,98273.08
2018-04-23T03:04:43.954Z,98279.91
2018-04-23T03:06:55.027Z,98269.22
2018-04-23T03:09:06.110Z,98275.90
2018-04-23T03:11:17.174Z,98276.13
2018-04-23T03:13:28.365Z,98269.07
2018-04-23T03:15:39.478Z,98269.97
2018-04-23T03:17:50.582Z,98267.91
2018-04-23T03:20:01.746Z,98269.48
2018-04-23T03:22:19.741Z,98267.61
2018-04-23T03:24:30.913Z,98263.52
2018-04-23T03:26:42.051Z,98270.41
2018-04-23T03:28:53.212Z,98268.88
2018-04-23T03:31:04.361Z,98264.45
2018-04-23T03:33:15.417Z,98269.50
2018-04-23T03:35:26.754Z,98261.11
2018-04-23T03:37:37.832Z,98258.48
2018-04-23T03:39:49.672Z,98261.66
2018-04-23T03:42:00.831Z,98262.30
2018-04-23T03:44:11.939Z,98260.83
2018-04-23T03:46:23.046Z,98262.02
2018-04-23T03:48:34.165Z,98263.63
2018-04-23T03:50:45.245Z,98264.16
2018-04-23T03:52:56.390Z,98266.44
2018-04-23T03:55:07.478Z,98272.70
2018-04-23T03:57:18.601Z,98272.09
2018-04-23T03:59:29.702Z,98277.38
2018-04-23T04:01:40.913Z,98269.64
2018-04-23T04:03:51.970Z,98268.89
2018-04-23T04:06:03.093Z,98272.69
2018-04-23T04:08:14.194Z,98272.69
2018-04-23T04:10:25.308Z,98280.87
2018-04-23T04:12:48.498Z,98278.42
2018-04-23T04:15:11.946Z,98278.91
2018-04-23T04:17:35.850Z,98276.96
2018-04-23T04:19:46.945Z,98278.17
2018-04-23T04:21:58.029Z,98274.89
2018-04-23T04:24:09.129Z,98280.45
2018-04-23T04:26:20.337Z,98274.98
2018-04-23T04:28:32.257Z,98266.61
2018-04-23T04:30:43.317Z,98275.78
2018-04-23T04:32:54.473Z,98274.13
2018-04-23T04:35:05.564Z,98280.11
2018-04-23T04:37:16.686Z,98278.64
2018-04-23T04:39:27.757Z,98280.75
2018-04-23T04:41:39.065Z,98279.69
2018-04-23T04:43:50.165Z,98282.97
2018-04-23T04:46:01.259Z,98285.48
2018-04-23T04:48:12.369Z,98277.63
2018-04-23T04:50:23.489Z,98285.08
2018-04-23T04:52:34.562Z,98287.45
2018-04-23T04:54:45.661Z,98286.04
2018-04-23T04:56:56.829Z,98283.28
2018-04-23T04:59:07.930Z,98281.41
2018-04-23T05:01:18.993Z,98290.16
2018-04-23T05:03:30.137Z,98288.77
2018-04-23T05:05:41.220Z,98285.65
2018-04-23T05:07:52.282Z,98280.66
2018-04-23T05:10:03.427Z,98287.80
2018-04-23T05:12:14.574Z,98287.38
2018-04-23T05:14:25.756Z,98285.55
2018-04-23T05:16:36.897Z,98287.69
2018-04-23T05:18:47.993Z,98287.50
2018-04-23T05:20:59.075Z,98284.59
2018-04-23T05:23:10.132Z,98291.22
2018-04-23T05:25:21.201Z,98294.67
2018-04-23T05:27:32.306Z,98292.45
2018-04-23T05:29:43.435Z,98292.77
2018-04-23T05:31:54.623Z,98291.69
2018-04-23T05:34:05.726Z,98292.38
2018-04-23T05:36:16.799Z,98294.69
2018-04-23T05:38:27.850Z,98288.28
2018-04-23T05:40:38.922Z,98295.14
2018-04-23T05:42:49.981Z,98298.83
2018-04-23T05:45:01.144Z,98299.13
2018-04-23T05:47:13.127Z,98301.20
2018-04-23T05:49:24.171Z,98300.13
2018-04-23T05:51:35.270Z,98295.42
2018-04-23T05:53:46.301Z,98303.22
2018-04-23T05:55:57.782Z,98290.37
2018-04-23T05:58:08.830Z,98294.66
2018-04-23T06:00:20.175Z,98294.86
2018-04-23T06:02:31.358Z,98293.39
2018-04-23T06:04:42.446Z,98291.84
2018-04-23T06:06:53.549Z,98286.86
2018-04-23T06:09:04.622Z,98286.95
2018-04-23T06:11:15.702Z,98286.91
2018-04-23T06:13:26.831Z,98287.86
2018-04-23T06:15:37.890Z,98291.42
2018-04-23T06:17:48.977Z,98294.94
2018-04-23T06:20:00.053Z,98289.41
2018-04-23T06:22:11.221Z,98291.02
2018-04-23T06:24:22.268Z,98291.03
2018-04-23T06:26:33.321Z,98293.85
2018-04-23T06:28:44.399Z,98288.55
2018-04-23T06:30:55.491Z,98297.77
2018-04-23T06:33:06.602Z,98286.84
2018-04-23T06:35:17.742Z,98298.98
2018-04-23T06:37:28.931Z,98296.13
2018-04-23T06:39:40.008Z,98297.34
2018-04-23T06:41:51.063Z,98291.95
2018-04-23T06:44:02.143Z,98288.66
2018-04-23T06:46:13.229Z,98291.85
2018-04-23T06:48:24.291Z,98294.65
2018-04-23T06:50:35.357Z,98292.39
2018-04-23T06:52:46.423Z,98291.97
2018-04-23T06:54:57.509Z,98289.55
2018-04-23T06:57:08.570Z,98299.33
2018-04-23T06:59:19.629Z,98295.25
2018-04-23T07:01:30.693Z,98299.90
2018-04-23T07:03:41.778Z,98298.61
2018-04-23T07:05:52.951Z,98296.03
2018-04-23T07:08:04.026Z,98295.53
2018-04-23T07:10:15.137Z,98299.17
2018-04-23T07:12:26.198Z,98314.95
2018-04-23T07:14:37.309Z,98315.71
2018-04-23T07:16:48.363Z,98321.34
2018-04-23T07:18:59.455Z,98329.21
2018-04-23T07:21:10.492Z,98333.19
2018-04-23T07:23:21.585Z,98340.27
2018-04-23T07:25:32.673Z,98340.97
2018-04-23T07:27:43.878Z,98344.30
2018-04-23T07:29:54.918Z,98341.75
2018-04-23T07:32:05.982Z,98356.40
2018-04-23T07:34:17.027Z,98363.02
2018-04-23T07:36:28.090Z,98370.00
2018-04-23T07:38:39.182Z,98377.95
2018-04-23T07:40:50.222Z,98389.08
2018-04-23T07:43:01.426Z,98403.14
2018-04-23T07:45:12.480Z,98403.96
2018-04-23T07:47:23.547Z,98409.17
2018-04-23T07:49:34.594Z,98408.11
2018-04-23T07:51:45.670Z,98417.78
2018-04-23T07:53:56.746Z,98410.08
2018-04-23T07:56:07.886Z,98413.81
2018-04-23T07:58:19.007Z,98414.64
2018-04-23T08:00:30.098Z,98424.08
2018-04-23T08:02:41.147Z,98427.91
2018-04-23T08:04:52.233Z,98436.55
2018-04-23T08:07:03.294Z,98435.23
2018-04-23T08:09:14.376Z,98439.13
2018-04-23T08:11:25.534Z,98448.39
2018-04-23T08:13:36.717Z,98448.91
2018-04-23T08:15:47.898Z,98445.72
2018-04-23T08:17:59.078Z,98453.07
2018-04-23T08:20:10.127Z,98459.38
2018-04-23T08:22:21.210Z,98461.28
2018-04-23T08:24:32.558Z,98457.44
2018-04-23T08:26:43.634Z,98466.78
2018-04-23T08:28:54.717Z,98466.67
2018-04-23T08:31:05.771Z,98471.99
2018-04-23T08:33:16.894Z,98474.20
2018-04-23T08:35:28.118Z,98481.05
2018-04-23T08:37:39.166Z,98493.14
2018-04-23T08:39:50.220Z,98496.39
2018-04-23T08:42:01.277Z,98497.94
2018-04-23T08:44:12.321Z,98503.05
2018-04-23T08:46:23.491Z,98523.47
2018-04-23T08:48:34.546Z,98524.34
2018-04-23T08:50:45.678Z,98538.99
2018-04-23T08:52:56.738Z,98536.73
2018-04-23T08:55:07.858Z,98537.55
2018-04-23T08:57:18.921Z,98533.20
2018-04-23T08:59:29.978Z,98529.72
2018-04-23T09:01:41.050Z,98531.73
2018-04-23T09:03:52.106Z,98530.01
2018-04-23T09:06:03.226Z,98524.92
2018-04-23T09:08:14.330Z,98532.54
2018-04-23T09:10:25.422Z,98519.81
2018-04-23T09:12:36.495Z,98511.20
2018-04-23T09:14:47.548Z,98506.96
2018-04-23T09:16:58.630Z,98512.64
2018-04-23T09:19:09.689Z,98512.92
2018-04-23T09:21:20.722Z,98511.31
2018-04-23T09:23:31.857Z,98517.28
2018-04-23T09:25:42.927Z,98511.25
2018-04-23T09:27:54.038Z,98512.39
2018-04-23T09:30:05.115Z,98515.88
2018-04-23T09:32:16.193Z,98517.49
2018-04-23T09:34:27.286Z,98509.81
2018-04-23T09:36:38.326Z,98514.27
2018-04-23T09:38:49.513Z,98510.21
2018-04-23T09:41:00.586Z,98515.97
2018-04-23T09:43:11.727Z,98512.28
2018-04-23T09:45:22.902Z,98511.70
2018-04-23T09:47:34.042Z,98510.05
2018-04-23T09:49:45.117Z,98508.09
2018-04-23T09:51:56.174Z,98511.03
2018-04-23T09:54:07.283Z,98513.63
2018-04-23T09:56:18.375Z,98517.14
2018-04-23T09:58:30.494Z,98520.77
2018-04-23T10:00:41.638Z,98521.42
2018-04-23T10:02:52.695Z,98516.27
2018-04-23T10:05:03.986Z,98509.27
2018-04-23T10:07:15.038Z,98508.70
2018-04-23T10:09:26.192Z,98516.22
2018-04-23T10:11:37.352Z,98505.95
2018-04-23T10:13:48.482Z,98506.70
2018-04-23T10:15:59.566Z,98512.13
2018-04-23T10:18:10.622Z,98508.25
2018-04-23T10:20:21.678Z,98509.68
2018-04-23T10:22:32.788Z,98523.39
2018-04-23T10:24:43.869Z,98519.12
2018-04-23T10:26:54.931Z,98524.91
2018-04-23T10:29:06.152Z,98528.40
2018-04-23T10:31:17.378Z,98520.23
2018-04-23T10:33:28.497Z,98524.81
2018-04-23T10:35:39.559Z,98533.38
2018-04-23T10:37:50.642Z,98530.48
2018-04-23T10:40:01.699Z,98534.05
2018-04-23T10:42:12.788Z,98537.52
2018-04-23T10:44:23.920Z,98531.19
2018-04-23T10:46:34.995Z,98532.34
2018-04-23T10:48:46.078Z,98533.02
2018-04-23T10:50:57.138Z,98536.89
2018-04-23T10:53:08.217Z,98536.19
2018-04-23T10:55:19.293Z,98541.42
2018-04-23T10:57:30.375Z,98542.58
2018-04-23T10:59:41.494Z,98539.28
2018-04-23T11:01:52.612Z,98535.23
2018-04-23T11:04:03.798Z,98524.44
2018-04-23T11:06:14.846Z,98523.77
2018-04-23T11:08:26.039Z,98517.67
2018-04-23T11:10:37.161Z,98518.62
2018-04-23T11:12:48.383Z,98514.70
2018-04-23T11:14:59.484Z,98510.87
2018-04-23T11:17:10.541Z,98507.28
2018-04-23T11:19:21.638Z,98510.95
2018-04-23T11:21:32.674Z,98506.08
2018-04-23T11:23:43.805Z,98511.73
2018-04-23T11:25:54.926Z,98514.62
2018-04-23T11:28:06.042Z,98513.30
2018-04-23T11:30:17.150Z,98515.76
2018-04-23T11:32:28.260Z,98515.34
2018-04-23T11:34:39.290Z,98510.72
2018-04-23T11:36:50.406Z,98509.13
2018-04-23T11:39:01.457Z,98501.98
2018-04-23T11:41:12.586Z,98507.64
2018-04-23T11:43:23.673Z,98503.84
2018-04-23T11:45:34.746Z,98505.57
2018-04-23T11:47:45.808Z,98505.30
2018-04-23T11:49:56.887Z,98502.21
2018-04-23T11:52:08.209Z,98499.07
2018-04-23T11:54:19.250Z,98497.38
2018-04-23T11:56:30.340Z,98500.42
2018-04-23T11:58:41.429Z,98504.22
2018-04-23T12:00:52.587Z,98491.45
2018-04-23T12:03:03.659Z,98497.52
2018-04-23T12:05:14.791Z,98495.30
2018-04-23T12:07:25.982Z,98501.69
2018-04-23T12:09:37.057Z,98504.36
2018-04-23T12:11:48.138Z,98510.13
2018-04-23T12:13:59.201Z,98507.22
2018-04-23T12:16:10.491Z,98503.17
2018-04-23T12:18:21.521Z,98501.90
2018-04-23T12:20:32.626Z,98505.59
2018-04-23T12:22:43.709Z,98504.05
2018-04-23T12:24:54.766Z,98511.81
2018-04-23T12:27:05.813Z,98508.59
2018-04-23T12:29:16.945Z,98510.90
2018-04-23T12:31:28.006Z,98516.06
2018-04-23T12:33:39.079Z,98515.83
2018-04-23T12:35:50.223Z,98512.47
2018-04-23T12:38:01.282Z,98513.14
2018-04-23T12:40:12.615Z,98510.34
2018-04-23T12:42:23.944Z,98506.41
2018-04-23T12:44:35.037Z,98509.01
2018-04-23T12:46:46.091Z,98507.07
2018-04-23T12:48:57.167Z,98505.19
2018-04-23T12:51:08.237Z,98504.59
2018-04-23T12:53:19.285Z,98495.31
2018-04-23T12:55:30.450Z,98504.88
2018-04-23T12:57:41.523Z,98508.98
2018-04-23T12:59:52.690Z,98509.66
2018-04-23T13:02:03.741Z,98511.23
2018-04-23T13:04:14.811Z,98508.39
2018-04-23T13:06:25.922Z,98511.39
2018-04-23T13:08:36.980Z,98503.61
2018-04-23T13:10:48.165Z,98504.05
2018-04-23T13:12:59.242Z,98495.93
2018-04-23T13:15:10.380Z,98487.48
2018-04-23T13:17:21.471Z,98485.98
2018-04-23T13:19:32.555Z,98481.90
2018-04-23T13:21:43.632Z,98486.81
2018-04-23T13:23:54.736Z,98485.52
2018-04-23T13:26:05.768Z,98484.66
2018-04-23T13:28:16.913Z,98488.59
2018-04-23T13:30:28.076Z,98487.81
2018-04-23T13:32:39.227Z,98486.83
2018-04-23T13:34:50.339Z,98493.76
2018-04-23T13:37:01.415Z,98484.20
2018-04-23T13:39:12.521Z,98479.42
2018-04-23T13:41:23.626Z,98476.00
2018-04-23T13:43:34.669Z,98479.45
2018-04-23T13:45:45.759Z,98478.45
2018-04-23T13:47:56.915Z,98469.67
2018-04-23T13:50:07.957Z,98463.52
2018-04-23T13:52:19.098Z,98458.72
2018-04-23T13:54:30.137Z,98453.38
2018-04-23T13:56:41.177Z,98445.55
2018-04-23T13:58:52.253Z,98446.02
2018-04-23T14:01:03.301Z,98440.06
2018-04-23T14:03:14.434Z,98438.52
2018-04-23T14:05:25.530Z,98426.88
2018-04-23T14:07:36.658Z,98425.20
2018-04-23T14:09:47.710Z,98423.72
2018-04-23T14:11:58.802Z,98419.89
2018-04-23T14:14:10.381Z,98416.53
2018-04-23T14:16:21.459Z,98414.61
2018-04-23T14:18:32.755Z,98410.46
2018-04-23T14:20:43.816Z,98404.69
2018-04-23T14:22:54.878Z,98408.37
2018-04-23T14:25:06.012Z,98404.33
2018-04-23T14:27:17.190Z,98404.84
2018-04-23T14:29:28.313Z,98403.31
2018-04-23T14:31:39.403Z,98411.12
2018-04-23T14:33:50.486Z,98409.06
2018-04-23T14:36:01.543Z,98409.20
2018-04-23T14:38:12.618Z,98404.44
2018-04-23T14:40:23.751Z,98405.92
2018-04-23T14:42:34.813Z,98395.19
2018-04-23T14:44:45.877Z,98405.31
2018-04-23T14:46:56.982Z,98404.22
2018-04-23T14:49:08.083Z,98399.62
2018-04-23T14:51:19.445Z,98398.77
2018-04-23T14:53:30.493Z,98401.42
2018-04-23T14:55:41.557Z,98390.21
2018-04-23T14:57:52.613Z,98395.88
2018-04-23T15:00:03.688Z,98393.78
2018-04-23T15:02:14.814Z,98392.95
2018-04-23T15:04:25.861Z,98395.19
2018-04-23T15:06:37.034Z,98396.43
2018-04-23T15:08:48.070Z,98394.13
2018-04-23T15:10:59.209Z,98396.31
2018-04-23T15:13:10.334Z,98391.28
2018-04-23T15:15:21.371Z,98395.70
2018-04-23T15:17:32.447Z,98391.00
2018-04-23T15:19:43.493Z,98388.73
2018-04-23T15:21:54.643Z,98391.78
2018-04-23T15:24:05.767Z,98397.14
2018-04-23T15:26:16.819Z,98399.11
2018-04-23T15:28:27.952Z,98394.68
2018-04-23T15:30:39.022Z,98397.52
2018-04-23T15:32:50.791Z,98395.55
2018-04-23T15:35:01.831Z,98395.88
2018-04-23T15:37:12.902Z,98400.58
2018-04-23T15:39:23.981Z,98409.25
2018-04-23T15:41:35.130Z,98400.94
2018-04-23T15:43:46.226Z,98410.10
2018-04-23T15:45:57.339Z,98413.65
2018-04-23T15:48:08.442Z,98415.64
2018-04-23T15:50:19.647Z,98423.06
2018-04-23T15:52:30.706Z,98418.97
2018-04-23T15:54:41.797Z,98419.14
2018-04-23T15:56:52.861Z,98419.81
2018-04-23T15:59:03.947Z,98426.41
2018-04-23T16:01:15.211Z,98432.84
2018-04-23T16:03:26.922Z,98428.84
2018-04-23T16:05:38.058Z,98435.52
2018-04-23T16:07:49.170Z,98431.45
2018-04-23T16:10:00.318Z,98427.33
2018-04-23T16:12:11.390Z,98423.58
2018-04-23T16:14:22.497Z,98427.58
2018-04-23T16:16:33.719Z,98423.08
2018-04-23T16:18:44.802Z,98426.05
2018-04-23T16:20:55.875Z,98425.31
2018-04-23T16:23:06.962Z,98427.33
2018-04-23T16:25:18.038Z,98427.98
2018-04-23T16:27:29.138Z,98429.51
2018-04-23T16:29:40.213Z,98436.13
2018-04-23T16:31:51.381Z,98430.49
2018-04-23T16:34:02.486Z,98432.67
2018-04-23T16:36:13.570Z,98427.60
2018-04-23T16:38:24.638Z,98423.06
2018-04-23T16:40:35.761Z,98423.06
2018-04-23T16:42:46.809Z,98420.34
2018-04-23T16:44:58.051Z,98423.19
2018-04-23T16:47:09.217Z,98415.72
2018-04-23T16:49:20.291Z,98411.69
2018-04-23T16:51:31.465Z,98415.19
2018-04-23T16:53:42.552Z,98418.05
2018-04-23T16:55:53.649Z,98418.83
2018-04-23T16:58:04.743Z,98415.98
2018-04-23T17:00:15.797Z,98424.30
2018-04-23T17:02:26.905Z,98427.61
2018-04-23T17:04:38.097Z,98427.61
2018-04-23T17:06:49.205Z,98424.72
2018-04-23T17:09:00.339Z,98434.22
2018-04-23T17:11:11.449Z,98434.22
2018-04-23T17:13:22.517Z,98438.51
2018-04-23T17:15:33.617Z,98447.81
2018-04-23T17:17:44.706Z,98448.88
2018-04-23T17:19:55.818Z,98450.59
2018-04-23T17:22:06.961Z,98458.98
2018-04-23T17:24:18.085Z,98461.00
2018-04-23T17:26:29.146Z,98463.58
2018-04-23T17:28:40.266Z,98468.02
2018-04-23T17:30:51.350Z,98475.66
2018-04-23T17:33:02.421Z,98472.17
2018-04-23T17:35:13.554Z,98472.06
2018-04-23T17:37:24.605Z,98471.57
2018-04-23T17:39:35.795Z,98477.33
2018-04-23T17:41:46.901Z,98478.92
2018-04-23T17:43:58.053Z,98479.34
2018-04-23T17:46:09.137Z,98476.32
2018-04-23T17:48:20.211Z,98478.41
2018-04-23T17:50:31.298Z,98480.02
2018-04-23T17:52:42.400Z,98483.00
2018-04-23T17:54:53.474Z,98487.07
2018-04-23T17:57:04.603Z,98492.27
2018-04-23T17:59:15.710Z,98491.22
2018-04-23T18:01:26.790Z,98493.17
2018-04-23T18:03:37.951Z,98496.42
2018-04-23T18:05:49.065Z,98496.44
2018-04-23T18:08:00.147Z,98499.08
2018-04-23T18:10:11.335Z,98500.85
2018-04-23T18:12:22.447Z,98498.72
2018-04-23T18:14:33.501Z,98498.99
2018-04-23T18:16:44.549Z,98499.81
2018-04-23T18:18:55.677Z,98508.36
2018-04-23T18:21:06.770Z,98503.84
2018-04-23T18:23:17.950Z,98505.49
2018-04-23T18:25:29.015Z,98509.03
2018-04-23T18:27:40.143Z,98510.50
2018-04-23T18:29:51.217Z,98505.08
2018-04-23T18:32:02.274Z,98506.55
2018-04-23T18:34:13.410Z,98518.52
2018-04-23T18:36:24.536Z,98518.33
2018-04-23T18:38:35.705Z,98518.03
2018-04-23T18:40:46.787Z,98513.72
2018-04-23T18:42:58.002Z,98518.80
2018-04-23T18:45:09.161Z,98518.64
2018-04-23T18:47:20.190Z,98520.19
2018-04-23T18:49:31.339Z,98519.73
2018-04-23T18:51:42.411Z,98523.50
2018-04-23T18:53:53.652Z,98529.10
2018-04-23T18:56:04.718Z,98522.01
2018-04-23T18:58:15.949Z,98524.08
2018-04-23T19:00:27.050Z,98526.52
2018-04-23T19:02:38.249Z,98521.93
2018-04-23T19:04:49.311Z,98525.16
2018-04-23T19:07:00.466Z,98531.59
2018-04-23T19:09:11.529Z,98528.28
2018-04-23T19:11:22.653Z,98531.40
2018-04-23T19:13:33.786Z,98525.20
2018-04-23T19:15:44.911Z,98536.20
2018-04-23T19:17:56.051Z,98536.73
2018-04-23T19:20:07.197Z,98540.82
2018-04-23T19:22:18.358Z,98548.89
2018-04-23T19:24:29.474Z,98546.34
2018-04-23T19:26:40.583Z,98552.98
2018-04-23T19:28:51.686Z,98553.40
2018-04-23T19:31:02.768Z,98547.91
2018-04-23T19:33:13.961Z,98547.35
2018-04-23T19:35:25.043Z,98554.22
2018-04-23T19:37:36.214Z,98555.80
2018-04-23T19:39:47.267Z,98549.90
2018-04-23T19:41:58.445Z,98559.59
2018-04-23T19:44:09.563Z,98561.95
2018-04-23T19:46:20.716Z,98564.83
2018-04-23T19:48:31.739Z,98565.16
2018-04-23T19:50:42.795Z,98569.43
2018-04-23T19:52:53.912Z,98566.31
2018-04-23T19:55:05.004Z,98568.80
2018-04-23T19:57:16.307Z,98564.12
2018-04-23T19:59:27.406Z,98569.22
2018-04-23T20:01:38.542Z,98574.44
2018-04-23T20:03:49.629Z,98571.67
2018-04-23T20:06:00.761Z,98572.56
2018-04-23T20:08:11.855Z,98569.18
2018-04-23T20:10:22.892Z,98574.88
2018-04-23T20:12:34.088Z,98583.27
2018-04-23T20:14:45.190Z,98579.05
2018-04-23T20:16:56.382Z,98580.22
2018-04-23T20:19:07.495Z,98581.19
2018-04-23T20:21:18.586Z,98582.36
2018-04-23T20:23:29.666Z,98585.05
2018-04-23T20:25:40.736Z,98585.57
2018-04-23T20:27:51.941Z,98592.35
2018-04-23T20:30:03.054Z,98602.77
2018-04-23T20:32:14.219Z,98601.87
2018-04-23T20:34:25.306Z,98598.25
2018-04-23T20:36:36.416Z,98591.79
2018-04-23T20:38:47.525Z,98592.25
2018-04-23T20:40:58.654Z,98602.17
2018-04-23T20:43:09.965Z,98606.02
2018-04-23T20:45:21.070Z,98604.39
2018-04-23T20:47:32.136Z,98606.05
2018-04-23T20:49:43.222Z,98613.55
2018-04-23T20:51:54.382Z,98615.56
2018-04-23T20:54:05.441Z,98620.22
2018-04-23T20:56:16.554Z,98620.47
2018-04-23T20:58:27.649Z,98620.33
2018-04-23T21:00:38.720Z,98622.96
2018-04-23T21:02:49.793Z,98625.10
2018-04-23T21:05:00.921Z,98625.38
2018-04-23T21:07:12.010Z,98626.97
2018-04-23T21:09:23.099Z,98631.02
2018-04-23T21:11:34.297Z,98625.11
2018-04-23T21:13:45.358Z,98631.30
2018-04-23T21:15:56.606Z,98640.24
2018-04-23T21:18:07.736Z,98635.72
2018-04-23T21:20:18.833Z,98635.86
2018-04-23T21:22:29.974Z,98640.69
2018-04-23T21:24:41.034Z,98638.55
2018-04-23T21:26:52.116Z,98641.94
2018-04-23T21:29:03.200Z,98640.86
2018-04-23T21:31:14.370Z,98643.48
2018-04-23T21:33:25.445Z,98644.73
2018-04-23T21:35:36.565Z,98644.80
2018-04-23T21:37:47.627Z,98640.93
2018-04-23T21:39:58.701Z,98642.90
2018-04-23T21:42:09.817Z,98638.38
2018-04-23T21:44:20.958Z,98642.38
2018-04-23T21:46:32.062Z,98633.84
2018-04-23T21:48:43.174Z,98634.16
2018-04-23T21:50:54.334Z,98642.69
2018-04-23T21:53:05.398Z,98643.45
2018-04-23T21:55:16.434Z,98648.11
2018-04-23T21:57:27.498Z,98645.55
2018-04-23T21:59:38.566Z,98640.30
2018-04-23T22:01:49.665Z,98636.13
2018-04-23T22:04:00.742Z,98644.37
2018-04-23T22:06:11.838Z,98640.53
2018-04-23T22:08:22.918Z,98646.92
2018-04-23T22:10:34.006Z,98655.89
2018-04-23T22:12:45.098Z,98655.34
2018-04-23T22:14:56.198Z,98662.33
2018-04-23T22:17:07.255Z,98663.22
2018-04-23T22:19:18.421Z,98662.55
2018-04-23T22:21:29.506Z,98660.96
2018-04-23T22:23:40.686Z,98664.78
2018-04-23T22:25:51.741Z,98663.16
2018-04-23T22:28:02.890Z,98667.92
2018-04-23T22:30:13.945Z,98667.47
2018-04-23T22:32:25.053Z,98676.65
2018-04-23T22:34:36.126Z,98672.30
2018-04-23T22:36:47.177Z,98670.44
2018-04-23T22:38:58.305Z,98669.67
2018-04-23T22:41:09.382Z,98665.91
2018-04-23T22:43:20.609Z,98668.00
2018-04-23T22:45:31.671Z,98668.30
2018-04-23T22:47:42.726Z,98668.95
2018-04-23T22:49:53.794Z,98669.17
2018-04-23T22:52:04.845Z,98664.52
2018-04-23T22:54:15.950Z,98666.60
2018-04-23T22:56:26.998Z,98674.80
2018-04-23T22:58:38.042Z,98664.61
2018-04-23T23:00:49.179Z,98677.39
2018-04-23T23:03:00.240Z,98675.48
2018-04-23T23:05:11.321Z,98679.30
2018-04-23T23:07:22.378Z,98681.86
2018-04-23T23:09:33.475Z,98684.35
2018-04-23T23:11:44.606Z,98677.67
2018-04-23T23:13:55.651Z,98673.98
2018-04-23T23:16:06.795Z,98677.13
2018-04-23T23:18:17.874Z,98679.00
2018-04-23T23:20:29.002Z,98676.30
2018-04-23T23:22:40.069Z,98679.53
2018-04-23T23:24:51.129Z,98676.78
2018-04-23T23:27:02.205Z,98673.27
2018-04-23T23:29:13.346Z,98670.20
2018-04-23T23:31:24.491Z,98669.95
2018-04-23T23:33:35.564Z,98670.59
2018-04-23T23:35:46.620Z,98671.23
2018-04-23T23:37:57.697Z,98673.37
2018-04-23T23:40:08.776Z,98678.09
2018-04-23T23:42:19.857Z,98664.80
2018-04-23T23:44:30.910Z,98672.66
2018-04-23T23:46:42.023Z,98674.86
2018-04-23T23:48:53.091Z,98678.60
2018-04-23T23:51:04.157Z,98677.09
2018-04-23T23:53:15.294Z,98673.52
2018-04-23T23:55:26.390Z,98679.80
2018-04-23T23:57:37.457Z,98680.28
2018-04-23T23:59:48.491Z,98680.91
